createdAt,value
2018-04-16T00:01:16.428Z,13.40
2018-04-16T00:03:42.524Z,15.43
2018-04-16T00:06:08.583Z,15.00
2018-04-16T00:08:34.675Z,15.10
2018-04-16T00:11:00.755Z,15.53
2018-04-16T00:13:26.839Z,17.33
2018-04-16T00:15:52.933Z,19.30
2018-04-16T00:18:19.744Z,19.53
2018-04-16T00:20:45.821Z,19.03
2018-04-16T00:23:11.887Z,19.23
2018-04-16T00:25:37.973Z,18.77
2018-04-16T00:28:04.039Z,18.40
2018-04-16T00:30:30.119Z,19.67
2018-04-16T00:33:02.415Z,18.63
2018-04-16T00:35:34.581Z,19.50
2018-04-16T00:38:06.907Z,19.23
2018-04-16T00:40:39.804Z,21.17
2018-04-16T00:43:12.648Z,20.03
2018-04-16T00:45:44.844Z,20.33
2018-04-16T00:48:17.903Z,21.73
2018-04-16T00:50:50.009Z,19.40
2018-04-16T00:53:23.096Z,18.50
2018-04-16T00:55:55.948Z,20.23
2018-04-16T00:58:28.136Z,20.93
2018-04-16T01:01:01.040Z,20.00
2018-04-16T01:03:33.301Z,20.97
2018-04-16T01:06:06.148Z,21.30
2018-04-16T01:08:38.243Z,21.90
2018-04-16T01:11:11.159Z,22.20
2018-04-16T01:13:43.300Z,23.93
2018-04-16T01:16:19.532Z,22.37
2018-04-16T01:18:51.903Z,22.67
2018-04-16T01:21:24.069Z,20.97
2018-04-16T01:23:56.276Z,19.80
2018-04-16T01:26:29.339Z,18.87
2018-04-16T01:29:01.643Z,16.37
2018-04-16T01:31:34.723Z,18.33
2018-04-16T01:37:12.501Z,19.50
2018-04-16T01:39:44.783Z,20.83
2018-04-16T01:42:17.117Z,21.17
2018-04-16T01:44:49.418Z,21.20
2018-04-16T01:47:21.524Z,20.77
2018-04-16T01:49:54.387Z,20.13
2018-04-16T01:52:26.540Z,21.93
2018-04-16T01:54:58.676Z,22.47
2018-04-16T01:57:30.788Z,21.97
2018-04-16T02:00:03.169Z,21.13
2018-04-16T02:02:35.597Z,20.63
2018-04-16T02:05:07.736Z,21.17
2018-04-16T02:07:40.609Z,22.80
2018-04-16T02:10:13.416Z,23.73
2018-04-16T02:12:45.700Z,23.77
2018-04-16T02:15:17.760Z,26.90
2018-04-16T02:17:49.933Z,27.10
2018-04-16T02:20:22.101Z,27.30
2018-04-16T02:22:54.252Z,29.27
2018-04-16T02:25:26.412Z,29.83
2018-04-16T02:27:58.507Z,29.20
2018-04-16T02:30:30.848Z,26.03
2018-04-16T02:33:03.033Z,27.37
2018-04-16T02:35:35.117Z,29.67
2018-04-16T02:38:07.464Z,30.93
2018-04-16T02:40:39.527Z,31.27
2018-04-16T02:43:11.676Z,30.37
2018-04-16T02:45:44.518Z,29.37
2018-04-16T02:48:16.791Z,30.17
2018-04-16T02:50:49.134Z,29.63
2018-04-16T02:53:21.496Z,33.07
2018-04-16T02:55:53.796Z,32.53
2018-04-16T02:58:25.928Z,32.90
2018-04-16T03:00:58.055Z,35.10
2018-04-16T03:03:30.225Z,33.93
2018-04-16T03:06:02.424Z,35.97
2018-04-16T03:08:35.267Z,38.33
2018-04-16T03:11:07.412Z,37.00
2018-04-16T03:13:39.563Z,35.57
2018-04-16T03:16:11.799Z,39.53
2018-04-16T03:18:44.125Z,42.13
2018-04-16T03:21:16.492Z,41.77
2018-04-16T03:26:54.926Z,43.13
2018-04-16T03:29:27.189Z,44.17
2018-04-16T03:31:59.460Z,43.77
2018-04-16T03:34:31.540Z,43.47
2018-04-16T03:37:03.860Z,46.40
2018-04-16T03:39:36.972Z,46.60
2018-04-16T03:42:09.050Z,52.60
2018-04-16T03:44:41.136Z,58.43
2018-04-16T03:47:13.313Z,49.13
2018-04-16T03:49:45.528Z,49.40
2018-04-16T03:55:23.270Z,49.93
2018-04-16T03:57:49.347Z,52.40
2018-04-16T04:00:15.437Z,53.13
2018-04-16T04:02:41.524Z,52.40
2018-04-16T04:05:08.344Z,50.37
2018-04-16T04:07:34.420Z,55.80
2018-04-16T04:10:00.488Z,54.53
2018-04-16T04:12:26.567Z,54.53
2018-04-16T04:14:52.641Z,54.37
2018-04-16T04:17:18.720Z,53.13
2018-04-16T04:19:44.805Z,52.40
2018-04-16T04:22:10.873Z,53.40
2018-04-16T04:24:55.701Z,53.30
2018-04-16T04:27:40.403Z,55.03
2018-04-16T04:30:18.528Z,58.43
2018-04-16T04:32:44.616Z,62.70
2018-04-16T04:35:10.688Z,59.07
2018-04-16T04:37:36.771Z,61.60
2018-04-16T04:40:02.880Z,57.43
2018-04-16T04:42:29.696Z,61.23
2018-04-16T04:44:55.768Z,63.07
2018-04-16T04:47:21.840Z,61.33
2018-04-16T04:49:47.924Z,54.73
2018-04-16T04:52:13.996Z,48.00
2018-04-16T04:54:40.067Z,44.83
2018-04-16T04:57:06.132Z,50.77
2018-04-16T04:59:32.219Z,49.23
2018-04-16T05:01:58.284Z,46.87
2018-04-16T05:04:24.353Z,52.30
2018-04-16T05:06:50.433Z,47.53
2018-04-16T05:09:16.504Z,46.40
2018-04-16T05:11:42.576Z,49.20
2018-04-16T05:14:08.639Z,37.60
2018-04-16T05:16:35.442Z,36.27
2018-04-16T05:19:01.524Z,35.77
2018-04-16T05:21:27.599Z,30.90
2018-04-16T05:23:53.676Z,32.83
2018-04-16T05:26:19.759Z,32.70
2018-04-16T05:28:45.833Z,32.43
2018-04-16T05:31:11.920Z,34.27
2018-04-16T05:33:38.003Z,35.10
2018-04-16T05:36:04.092Z,39.30
2018-04-16T05:38:30.181Z,40.60
2018-04-16T05:40:56.300Z,44.03
2018-04-16T05:43:22.373Z,44.57
2018-04-16T05:45:48.432Z,48.37
2018-04-16T05:48:14.512Z,52.90
2018-04-16T05:50:41.352Z,53.80
2018-04-16T05:53:08.171Z,54.67
2018-04-16T05:55:34.240Z,57.20
2018-04-16T05:58:00.319Z,60.87
2018-04-16T06:00:26.401Z,67.03
2018-04-16T06:02:52.474Z,68.60
2018-04-16T06:05:18.539Z,67.83
2018-04-16T06:07:44.620Z,72.97
2018-04-16T06:10:10.692Z,71.67
2018-04-16T06:12:36.767Z,75.03
2018-04-16T06:15:02.840Z,73.90
2018-04-16T06:17:28.920Z,77.63
2018-04-16T06:19:54.999Z,75.87
2018-04-16T06:22:21.073Z,80.47
2018-04-16T06:24:47.159Z,76.33
2018-04-16T06:27:13.291Z,76.77
2018-04-16T06:29:39.312Z,78.17
2018-04-16T06:32:05.387Z,74.47
2018-04-16T06:34:31.477Z,76.87
2018-04-16T06:36:57.573Z,80.33
2018-04-16T06:39:23.639Z,75.37
2018-04-16T06:41:49.712Z,78.77
2018-04-16T06:44:15.788Z,80.80
2018-04-16T06:46:41.855Z,83.80
2018-04-16T06:49:08.703Z,81.07
2018-04-16T06:51:34.784Z,85.13
2018-04-16T06:54:00.861Z,82.70
2018-04-16T06:56:26.956Z,85.03
2018-04-16T06:58:53.019Z,82.70
2018-04-16T07:01:19.130Z,80.53
2018-04-16T07:03:45.243Z,83.60
2018-04-16T07:06:12.074Z,83.97
2018-04-16T07:08:38.891Z,81.23
2018-04-16T07:11:04.973Z,81.37
2018-04-16T07:13:31.046Z,80.47
2018-04-16T07:15:57.189Z,82.87
2018-04-16T07:18:23.224Z,79.07
2018-04-16T07:20:50.038Z,79.13
2018-04-16T07:23:16.130Z,79.07
2018-04-16T07:25:42.247Z,78.30
2018-04-16T07:28:08.331Z,79.73
2018-04-16T07:30:34.404Z,75.33
2018-04-16T07:33:00.485Z,73.50
2018-04-16T07:35:26.568Z,73.73
2018-04-16T07:38:00.924Z,69.27
2018-04-16T07:40:27.012Z,67.20
2018-04-16T07:42:53.106Z,64.23
2018-04-16T07:45:19.184Z,66.20
2018-04-16T07:47:45.318Z,67.07
2018-04-16T07:50:11.401Z,64.07
2018-04-16T07:52:37.471Z,61.57
2018-04-16T07:55:03.551Z,61.03
2018-04-16T07:57:29.621Z,61.20
2018-04-16T07:59:55.714Z,64.53
2018-04-16T08:02:21.787Z,62.03
2018-04-16T08:04:47.868Z,60.60
2018-04-16T08:07:13.936Z,62.50
2018-04-16T08:09:40.764Z,61.40
2018-04-16T08:12:06.840Z,65.07
2018-04-16T08:14:32.945Z,63.13
2018-04-16T08:16:59.747Z,65.83
2018-04-16T08:19:25.815Z,62.77
2018-04-16T08:21:52.635Z,65.50
2018-04-16T08:24:18.701Z,63.63
2018-04-16T08:27:10.199Z,62.73
2018-04-16T08:29:37.012Z,65.03
2018-04-16T08:32:03.101Z,64.90
2018-04-16T08:34:29.163Z,62.77
2018-04-16T08:36:57.267Z,64.97
2018-04-16T08:39:24.075Z,69.87
2018-04-16T08:41:50.151Z,65.60
2018-04-16T08:44:16.232Z,63.00
2018-04-16T08:46:42.332Z,59.23
2018-04-16T08:49:08.416Z,59.53
2018-04-16T08:51:35.259Z,60.13
2018-04-16T08:54:02.060Z,60.43
2018-04-16T08:56:28.135Z,62.40
2018-04-16T08:58:54.208Z,60.20
2018-04-16T09:01:20.289Z,60.33
2018-04-16T09:03:46.366Z,58.53
2018-04-16T09:06:12.429Z,59.20
2018-04-16T09:08:38.507Z,61.53
2018-04-16T09:11:04.574Z,58.87
2018-04-16T09:13:31.404Z,58.60
2018-04-16T09:15:58.216Z,57.23
2018-04-16T09:18:24.296Z,57.10
2018-04-16T09:20:50.375Z,55.33
2018-04-16T09:23:16.456Z,56.50
2018-04-16T09:25:42.519Z,58.37
2018-04-16T09:28:08.628Z,59.07
2018-04-16T09:30:34.698Z,59.73
2018-04-16T09:33:01.546Z,57.83
2018-04-16T09:35:27.596Z,57.67
2018-04-16T09:37:53.695Z,59.13
2018-04-16T09:40:19.756Z,62.13
2018-04-16T09:42:45.835Z,56.83
2018-04-16T09:45:11.921Z,59.37
2018-04-16T09:47:38.000Z,53.57
2018-04-16T09:50:04.821Z,56.57
2018-04-16T09:52:30.889Z,52.33
2018-04-16T09:54:56.973Z,53.10
2018-04-16T09:57:23.056Z,51.43
2018-04-16T09:59:49.131Z,55.50
2018-04-16T10:02:21.445Z,54.27
2018-04-16T10:04:47.556Z,49.23
2018-04-16T10:07:13.628Z,51.13
2018-04-16T10:09:39.699Z,56.97
2018-04-16T10:12:05.779Z,55.83
2018-04-16T10:14:31.851Z,57.83
2018-04-16T10:16:57.938Z,57.60
2018-04-16T10:19:24.015Z,59.03
2018-04-16T10:21:50.084Z,55.47
2018-04-16T10:24:16.147Z,59.20
2018-04-16T10:26:42.969Z,55.40
2018-04-16T10:29:09.040Z,55.17
2018-04-16T10:31:35.131Z,52.43
2018-04-16T10:34:01.939Z,56.97
2018-04-16T10:36:28.016Z,56.37
2018-04-16T10:38:54.083Z,55.67
2018-04-16T10:41:20.166Z,52.70
2018-04-16T10:43:46.236Z,56.47
2018-04-16T10:46:12.319Z,53.80
2018-04-16T10:48:55.920Z,52.23
2018-04-16T10:51:21.985Z,55.87
2018-04-16T10:53:49.120Z,54.53
2018-04-16T10:59:44.496Z,51.20
2018-04-16T11:02:10.601Z,52.10
2018-04-16T11:04:36.672Z,53.03
2018-04-16T11:07:07.212Z,51.80
2018-04-16T11:09:33.297Z,52.90
2018-04-16T11:11:59.375Z,54.33
2018-04-16T11:14:44.325Z,53.87
2018-04-16T11:17:10.398Z,53.80
2018-04-16T11:19:56.125Z,52.50
2018-04-16T11:25:30.120Z,51.03
2018-04-16T11:31:23.721Z,50.60
2018-04-16T11:33:49.812Z,47.17
2018-04-16T11:36:15.892Z,46.73
2018-04-16T11:41:53.675Z,45.00
2018-04-16T11:44:27.384Z,49.23
2018-04-16T11:53:01.646Z,46.50
2018-04-16T11:55:27.732Z,47.87
2018-04-16T11:57:54.543Z,48.23
2018-04-16T12:00:20.634Z,45.73
2018-04-16T12:02:46.712Z,46.93
2018-04-16T12:05:12.796Z,48.50
2018-04-16T12:07:38.859Z,45.87
2018-04-16T12:10:10.227Z,45.77
2018-04-16T12:12:48.671Z,47.37
2018-04-16T12:15:14.769Z,42.53
2018-04-16T12:17:41.575Z,45.37
2018-04-16T12:20:07.690Z,45.80
2018-04-16T12:22:33.755Z,46.73
2018-04-16T12:25:00.576Z,49.67
2018-04-16T12:27:26.656Z,48.87
2018-04-16T12:29:52.732Z,49.33
2018-04-16T12:32:18.840Z,50.40
2018-04-16T12:34:44.924Z,53.80
2018-04-16T12:37:10.999Z,50.93
2018-04-16T12:39:37.075Z,47.27
2018-04-16T12:42:03.149Z,48.33
2018-04-16T12:44:29.224Z,47.10
2018-04-16T12:46:55.324Z,49.87
2018-04-16T12:49:22.145Z,49.73
2018-04-16T12:51:48.223Z,51.07
2018-04-16T12:54:14.288Z,48.40
2018-04-16T12:56:40.388Z,47.60
2018-04-16T12:59:06.456Z,49.80
2018-04-16T13:01:32.532Z,51.23
2018-04-16T13:03:58.617Z,50.13
2018-04-16T13:06:25.432Z,48.70
2018-04-16T13:08:51.524Z,51.80
2018-04-16T13:11:17.601Z,48.47
2018-04-16T13:13:43.676Z,50.33
2018-04-16T13:16:09.742Z,54.33
2018-04-16T13:18:35.832Z,54.97
2018-04-16T13:21:01.904Z,53.00
2018-04-16T13:26:51.100Z,51.83
2018-04-16T13:29:17.928Z,52.97
2018-04-16T13:31:44.051Z,54.60
2018-04-16T13:34:10.200Z,59.07
2018-04-16T13:36:37.116Z,64.00
2018-04-16T13:39:03.195Z,59.73
2018-04-16T13:41:29.270Z,58.63
2018-04-16T13:43:55.373Z,52.73
2018-04-16T13:46:21.443Z,53.10
2018-04-16T13:48:48.276Z,49.73
2018-04-16T13:51:14.352Z,49.97
2018-04-16T13:53:40.419Z,47.57
2018-04-16T13:56:06.503Z,49.20
2018-04-16T13:58:32.572Z,50.37
2018-04-16T14:00:58.653Z,48.00
2018-04-16T14:03:24.736Z,48.93
2018-04-16T14:05:51.556Z,50.27
2018-04-16T14:08:17.632Z,51.60
2018-04-16T14:10:43.721Z,50.10
2018-04-16T14:13:09.797Z,45.93
2018-04-16T14:15:35.871Z,42.17
2018-04-16T14:18:01.939Z,40.80
2018-04-16T14:20:28.028Z,38.80
2018-04-16T14:22:54.837Z,39.80
2018-04-16T14:25:20.900Z,39.00
2018-04-16T14:27:47.720Z,39.63
2018-04-16T14:30:13.788Z,38.00
2018-04-16T14:32:39.905Z,37.60
2018-04-16T14:35:06.045Z,35.20
2018-04-16T14:37:32.280Z,36.53
2018-04-16T14:39:58.488Z,36.33
2018-04-16T14:42:24.733Z,36.90
2018-04-16T14:44:50.968Z,33.53
2018-04-16T14:47:17.160Z,31.97
2018-04-16T14:49:44.109Z,32.03
2018-04-16T14:52:11.033Z,32.50
2018-04-16T14:54:37.250Z,32.63
2018-04-16T14:57:03.511Z,34.53
2018-04-16T14:59:29.685Z,31.73
2018-04-16T15:01:55.901Z,33.77
2018-04-16T15:04:22.113Z,33.87
2018-04-16T15:06:48.313Z,30.40
2018-04-16T15:09:15.272Z,32.67
2018-04-16T15:11:41.492Z,30.23
2018-04-16T15:14:08.413Z,32.13
2018-04-16T15:16:34.605Z,32.90
2018-04-16T15:19:00.832Z,32.30
2018-04-16T15:21:27.035Z,33.53
2018-04-16T15:23:53.215Z,35.30
2018-04-16T15:26:19.393Z,33.10
2018-04-16T15:28:45.592Z,34.27
2018-04-16T15:31:12.554Z,31.57
2018-04-16T15:33:38.765Z,33.50
2018-04-16T15:36:04.953Z,33.13
2018-04-16T15:38:31.197Z,34.27
2018-04-16T15:40:57.404Z,35.60
2018-04-16T15:43:23.589Z,38.13
2018-04-16T15:45:50.534Z,35.47
2018-04-16T15:48:17.472Z,37.50
2018-04-16T15:50:44.405Z,38.27
2018-04-16T15:53:10.625Z,38.37
2018-04-16T15:55:36.832Z,39.10
2018-04-16T15:58:03.739Z,40.33
2018-04-16T16:00:29.909Z,41.10
2018-04-16T16:02:56.099Z,40.83
2018-04-16T16:05:22.301Z,41.97
2018-04-16T16:07:49.193Z,41.77
2018-04-16T16:10:15.383Z,41.60
2018-04-16T16:12:42.323Z,42.57
2018-04-16T16:15:09.300Z,44.07
2018-04-16T16:17:35.510Z,43.30
2018-04-16T16:20:01.713Z,41.80
2018-04-16T16:22:27.901Z,41.27
2018-04-16T16:24:54.168Z,42.13
2018-04-16T16:27:20.372Z,41.43
2018-04-16T16:29:46.561Z,39.73
2018-04-16T16:32:12.768Z,38.20
2018-04-16T16:34:39.680Z,40.53
2018-04-16T16:37:05.868Z,39.87
2018-04-16T16:39:32.133Z,40.60
2018-04-16T16:41:58.309Z,38.70
2018-04-16T16:44:25.245Z,39.30
2018-04-16T16:46:52.200Z,40.50
2018-04-16T16:49:18.365Z,39.77
2018-04-16T16:51:44.577Z,38.07
2018-04-16T16:54:10.773Z,40.43
2018-04-16T16:56:37.654Z,40.53
2018-04-16T16:59:03.833Z,43.30
2018-04-16T17:01:30.157Z,43.30
2018-04-16T17:03:56.485Z,43.47
2018-04-16T17:06:22.676Z,45.77
2018-04-16T17:08:53.556Z,45.23
2018-04-16T17:11:19.792Z,47.10
2018-04-16T17:13:46.824Z,47.93
2018-04-16T17:16:13.045Z,48.60
2018-04-16T17:18:39.252Z,52.07
2018-04-16T17:21:05.442Z,50.70
2018-04-16T17:23:31.675Z,48.90
2018-04-16T17:25:57.877Z,50.13
2018-04-16T17:28:24.116Z,49.40
2018-04-16T17:33:55.605Z,51.97
2018-04-16T17:36:21.841Z,50.33
2018-04-16T17:38:48.032Z,51.73
2018-04-16T17:41:14.208Z,50.63
2018-04-16T17:43:40.470Z,54.27
2018-04-16T17:46:06.656Z,54.20
2018-04-16T17:48:32.857Z,56.60
2018-04-16T17:50:59.770Z,54.83
2018-04-16T17:53:25.969Z,56.70
2018-04-16T17:55:52.201Z,57.93
2018-04-16T17:58:18.422Z,57.70
2018-04-16T18:00:44.637Z,57.93
2018-04-16T18:03:10.855Z,61.37
2018-04-16T18:05:37.062Z,58.40
2018-04-16T18:08:03.293Z,62.70
2018-04-16T18:10:30.258Z,59.53
2018-04-16T18:13:01.852Z,59.87
2018-04-16T18:15:29.064Z,60.90
2018-04-16T18:17:56.020Z,61.13
2018-04-16T18:20:22.252Z,59.93
2018-04-16T18:22:48.497Z,62.57
2018-04-16T18:25:14.700Z,65.63
2018-04-16T18:27:40.894Z,69.03
2018-04-16T18:30:07.085Z,65.90
2018-04-16T18:32:33.285Z,67.90
2018-04-16T18:34:59.468Z,66.27
2018-04-16T18:37:25.657Z,66.40
2018-04-16T18:39:51.822Z,71.43
2018-04-16T18:42:18.023Z,71.17
2018-04-16T18:44:44.233Z,68.83
2018-04-16T18:47:10.431Z,71.53
2018-04-16T18:49:36.613Z,73.27
2018-04-16T18:52:02.805Z,69.90
2018-04-16T18:54:28.989Z,70.63
2018-04-16T18:56:55.187Z,74.37
2018-04-16T18:59:21.466Z,74.97
2018-04-16T19:01:48.400Z,74.73
2018-04-16T19:04:14.657Z,78.33
2018-04-16T19:06:41.597Z,74.93
2018-04-16T19:09:08.565Z,77.43
2018-04-16T19:11:34.768Z,80.67
2018-04-16T19:14:01.729Z,75.63
2018-04-16T19:16:27.903Z,78.73
2018-04-16T19:18:54.072Z,76.23
2018-04-16T19:21:27.063Z,76.27
2018-04-16T19:23:54.017Z,79.27
2018-04-16T19:26:20.957Z,75.33
2018-04-16T19:28:47.186Z,77.73
2018-04-16T19:31:14.145Z,77.43
2018-04-16T19:33:46.401Z,71.87
2018-04-16T19:36:13.313Z,76.43
2018-04-16T19:42:00.538Z,70.30
2018-04-16T19:44:26.736Z,76.90
2018-04-16T19:46:52.945Z,73.00
2018-04-16T19:49:26.121Z,73.03
2018-04-16T19:51:53.054Z,78.03
2018-04-16T19:54:19.324Z,75.53
2018-04-16T19:56:51.650Z,69.93
2018-04-16T19:59:17.844Z,70.30
2018-04-16T20:01:44.063Z,69.67
2018-04-16T20:04:10.264Z,80.30
2018-04-16T20:06:37.178Z,81.97
2018-04-16T20:09:03.392Z,67.87
2018-04-16T20:11:29.565Z,65.90
2018-04-16T20:13:56.533Z,63.90
2018-04-16T20:16:22.721Z,63.13
2018-04-16T20:18:48.897Z,61.60
2018-04-16T20:21:15.092Z,61.77
2018-04-16T20:23:42.045Z,69.87
2018-04-16T20:26:08.222Z,68.07
2018-04-16T20:28:34.405Z,63.10
2018-04-16T20:31:00.601Z,64.93
2018-04-16T20:33:26.965Z,71.53
2018-04-16T20:35:53.173Z,64.63
2018-04-16T20:38:20.109Z,66.90
2018-04-16T20:40:46.288Z,65.47
2018-04-16T20:43:12.469Z,66.20
2018-04-16T20:45:39.437Z,66.17
2018-04-16T20:48:05.625Z,66.77
2018-04-16T20:50:31.807Z,61.93
2018-04-16T20:52:58.053Z,57.57
2018-04-16T20:58:35.769Z,53.80
2018-04-16T21:04:01.925Z,53.00
2018-04-16T21:06:42.136Z,56.47
2018-04-16T21:09:34.625Z,62.30
2018-04-16T21:12:04.448Z,65.17
2018-04-16T21:14:47.757Z,63.27
2018-04-16T21:23:35.452Z,60.37
2018-04-16T21:26:21.004Z,62.73
2018-04-16T21:38:12.989Z,58.30
2018-04-16T21:40:44.677Z,63.67
2018-04-16T21:43:14.314Z,66.73
2018-04-16T21:45:40.570Z,71.97
2018-04-16T21:48:06.823Z,67.33
2018-04-16T21:50:33.110Z,62.77
2018-04-16T21:53:29.228Z,66.40
2018-04-16T21:55:57.539Z,61.33
2018-04-16T21:58:36.125Z,61.90
2018-04-16T22:01:02.349Z,67.43
2018-04-16T22:03:28.582Z,68.17
2018-04-16T22:05:54.843Z,65.57
2018-04-16T22:08:21.847Z,61.83
2018-04-16T22:10:48.124Z,64.80
2018-04-16T22:13:14.357Z,63.30
2018-04-16T22:15:40.615Z,61.13
2018-04-16T22:18:06.873Z,65.53
2018-04-16T22:20:33.148Z,71.93
2018-04-16T22:22:59.379Z,67.70
2018-04-16T22:25:25.637Z,70.07
2018-04-16T22:27:51.925Z,69.53
2018-04-16T22:30:18.168Z,65.73
2018-04-16T22:32:44.455Z,62.33
2018-04-16T22:35:10.737Z,63.47
2018-04-16T22:37:37.005Z,67.27
2018-04-16T22:40:03.253Z,64.47
2018-04-16T22:42:29.521Z,58.93
2018-04-16T22:44:55.780Z,60.87
2018-04-16T22:47:22.037Z,60.93
2018-04-16T22:49:48.285Z,57.30
2018-04-16T22:52:15.269Z,60.30
2018-04-16T22:54:41.532Z,63.93
2018-04-16T22:57:07.788Z,70.30
2018-04-16T22:59:34.813Z,67.40
2018-04-16T23:02:01.056Z,65.20
2018-04-16T23:04:28.090Z,61.20
2018-04-16T23:06:54.324Z,64.43
2018-04-16T23:09:20.566Z,62.90
2018-04-16T23:11:47.532Z,56.50
2018-04-16T23:14:13.791Z,57.10
2018-04-16T23:16:40.808Z,58.17
2018-04-16T23:19:07.082Z,58.23
2018-04-16T23:21:33.332Z,58.10
2018-04-16T23:23:59.597Z,49.83
2018-04-16T23:26:25.837Z,46.77
2018-04-16T23:28:52.085Z,49.53
2018-04-16T23:31:18.370Z,47.20
2018-04-16T23:33:44.617Z,48.80
2018-04-16T23:36:10.936Z,47.73
2018-04-16T23:38:37.135Z,51.27
2018-04-16T23:41:03.397Z,53.00
2018-04-16T23:43:29.616Z,53.43
2018-04-16T23:45:55.893Z,55.87
2018-04-16T23:48:22.884Z,55.67
2018-04-16T23:50:49.904Z,56.90
2018-04-16T23:53:16.168Z,55.43
2018-04-16T23:55:43.177Z,55.53
2018-04-16T23:58:09.404Z,52.20
